Details for Jet2 at EGAA




Go Back


Latest METAR
Local Time

EGAA 160920Z 24013KT 9999 BKN016 14/11 Q1007
16/08/2018, 10:48:17

Description
Results
Jet2 Logo
Number of Pilots based at EGAA
1 Pilots Based here
Number of Jet2 Flights Departed from EGAA
0 Flights Departed
Number of Jet2 Flights Arrived at EGAA
0 Flights Arrived
Number of Jet2 Schedules Departing from EGAA
28 Schedules
Number of Jet2 Schedules Arriving at EGAA
27 Schedules
Number of Jet2 Schedules Departing from EGAA availible today
6 Schedules Today
Number of Jet2 Schedules Arriving at EGAA availible today
6 Schedules Today
Average Landing Rate at EGAA
-230 fpm
Jet2 Average Landing Rate at EGAA
0 fpm
Total Fuel Purchased at EGAA by Jet2
0.00 kgs / 0.00 lbs

Pilots Based at EGAA


Pilot ID
Pilot Name
Pilot Rank
No. of Flights
No. of Flying Hours
Dean Cullen
160
194.56
Content